createdAt,value
2019-06-01T00:00:11.245Z,11.94
2019-06-01T00:10:02.749Z,11.88
2019-06-01T00:20:03.264Z,11.66
2019-06-01T00:30:03.337Z,11.63
2019-06-01T00:40:02.961Z,11.52
2019-06-01T00:50:03.298Z,11.52
2019-06-01T01:00:03.243Z,11.50
2019-06-01T01:10:03.040Z,11.42
2019-06-01T01:20:03.324Z,11.36
2019-06-01T01:30:02.755Z,11.22
2019-06-01T01:40:03.386Z,11.16
2019-06-01T01:50:03.036Z,11.13
2019-06-01T02:00:03.039Z,10.95
2019-06-01T02:10:02.815Z,10.85
2019-06-01T02:20:03.511Z,10.80
2019-06-01T02:30:05.517Z,10.71
2019-06-01T02:40:03.207Z,10.64
2019-06-01T02:50:04.410Z,10.46
2019-06-01T03:00:04.623Z,10.28
2019-06-01T03:10:03.207Z,10.19
2019-06-01T03:20:04.491Z,10.10
2019-06-01T03:30:05.340Z,10.04
2019-06-01T03:40:05.610Z,10.08
2019-06-01T03:50:02.945Z,10.55
2019-06-01T04:00:03.291Z,11.07
2019-06-01T04:10:03.739Z,11.71
2019-06-01T04:20:03.914Z,12.14
2019-06-01T04:30:04.418Z,12.41
2019-06-01T04:40:03.297Z,13.07
2019-06-01T04:50:03.006Z,13.42
2019-06-01T05:00:03.695Z,13.95
2019-06-01T05:10:02.831Z,14.32
2019-06-01T05:20:03.186Z,15.02
2019-06-01T05:30:02.889Z,15.88
2019-06-01T05:40:03.015Z,16.31
2019-06-01T05:50:03.055Z,16.53
2019-06-01T06:00:03.086Z,17.60
2019-06-01T06:10:03.106Z,18.68
2019-06-01T06:20:02.599Z,18.61
2019-06-01T06:30:03.063Z,18.58
2019-06-01T06:40:02.243Z,19.89
2019-06-01T06:50:02.867Z,21.22
2019-06-01T07:00:02.795Z,21.39
2019-06-01T07:10:02.403Z,22.31
2019-06-01T07:20:02.605Z,22.47
2019-06-01T07:30:03.283Z,22.57
2019-06-01T07:40:13.045Z,21.82
2019-06-01T07:50:02.247Z,22.54
2019-06-01T08:00:03.783Z,21.99
2019-06-01T08:10:03.177Z,22.55
2019-06-01T08:20:03.368Z,22.19
2019-06-01T08:30:02.990Z,23.17
2019-06-01T08:40:03.301Z,23.83
2019-06-01T08:50:02.319Z,23.41
2019-06-01T09:00:03.252Z,23.91
2019-06-01T09:10:02.777Z,23.19
2019-06-01T09:20:05.407Z,24.01
2019-06-01T09:30:03.528Z,23.38
2019-06-01T09:40:02.570Z,24.16
2019-06-01T09:50:02.520Z,23.88
2019-06-01T10:00:02.818Z,26.64
2019-06-01T10:10:02.805Z,25.44
2019-06-01T10:20:03.077Z,24.60
2019-06-01T10:30:02.587Z,24.27
2019-06-01T10:40:02.882Z,24.89
2019-06-01T10:50:02.970Z,25.29
2019-06-01T11:00:03.731Z,25.90
2019-06-01T11:10:02.821Z,25.61
2019-06-01T11:20:03.043Z,26.23
2019-06-01T11:30:03.593Z,25.03
2019-06-01T11:40:02.957Z,25.93
2019-06-01T11:50:02.812Z,26.36
2019-06-01T12:00:02.715Z,26.77
2019-06-01T12:10:02.848Z,28.16
2019-06-01T12:20:03.011Z,27.07
2019-06-01T12:30:02.576Z,28.51
2019-06-01T12:40:05.162Z,28.45
2019-06-01T12:50:03.218Z,26.84
2019-06-01T13:00:02.702Z,28.62
2019-06-01T13:10:02.708Z,26.54
2019-06-01T13:20:02.988Z,26.13
2019-06-01T13:30:03.377Z,26.25
2019-06-01T13:40:02.672Z,26.55
2019-06-01T13:50:06.413Z,27.46
2019-06-01T14:00:03.310Z,27.32
2019-06-01T14:10:02.368Z,27.06
2019-06-01T14:20:03.029Z,26.32
2019-06-01T14:30:03.437Z,27.24
2019-06-01T14:40:02.945Z,28.29
2019-06-01T14:50:02.716Z,28.50
2019-06-01T15:00:03.332Z,27.48
2019-06-01T15:10:02.986Z,27.06
2019-06-01T15:20:02.651Z,27.07
2019-06-01T15:30:03.293Z,28.01
2019-06-01T15:40:03.045Z,27.08
2019-06-01T15:50:02.654Z,26.95
2019-06-01T16:00:03.137Z,27.03
2019-06-01T16:10:06.274Z,26.68
2019-06-01T16:20:02.436Z,27.02
2019-06-01T16:30:03.851Z,27.04
2019-06-01T16:40:04.869Z,26.87
2019-06-01T16:50:03.860Z,25.65
2019-06-01T17:00:03.255Z,24.89
2019-06-01T17:10:19.028Z,24.81
2019-06-01T17:20:03.317Z,25.88
2019-06-01T17:30:06.739Z,25.89
2019-06-01T17:40:02.600Z,24.77
2019-06-01T17:50:03.818Z,24.51
2019-06-01T18:00:03.508Z,23.79
2019-06-01T18:10:04.588Z,23.83
2019-06-01T18:20:02.481Z,23.92
2019-06-01T18:30:04.648Z,23.49
2019-06-01T18:40:03.764Z,23.06
2019-06-01T18:50:03.030Z,22.32
2019-06-01T19:00:04.128Z,21.75
2019-06-01T19:10:03.172Z,21.40
2019-06-01T19:20:02.428Z,20.91
2019-06-01T19:30:03.153Z,20.75
2019-06-01T19:40:03.426Z,20.46
2019-06-01T19:50:02.484Z,19.79
2019-06-01T20:00:02.971Z,19.33
2019-06-01T20:10:02.965Z,18.98
2019-06-01T20:20:02.397Z,18.70
2019-06-01T20:30:02.954Z,18.44
2019-06-01T20:40:03.302Z,18.40
2019-06-01T20:50:02.231Z,17.96
2019-06-01T21:00:03.391Z,17.86
2019-06-01T21:10:02.848Z,17.89
2019-06-01T21:20:04.458Z,17.92
2019-06-01T21:30:03.052Z,17.26
2019-06-01T21:40:02.618Z,17.03
2019-06-01T21:50:03.316Z,16.96
2019-06-01T22:00:02.588Z,16.67
2019-06-01T22:10:02.936Z,16.40
2019-06-01T22:20:03.008Z,16.21
2019-06-01T22:30:03.384Z,16.03
2019-06-01T22:40:02.628Z,15.90
2019-06-01T22:50:03.139Z,15.71
2019-06-01T23:00:02.912Z,15.89
2019-06-01T23:10:03.091Z,15.93
2019-06-01T23:20:02.149Z,15.66
2019-06-01T23:30:03.576Z,15.68
2019-06-01T23:40:02.642Z,15.43
2019-06-01T23:50:02.586Z,15.35
